Mac Mahan, Maine
Current Conditions -  °F | °C
As of 11:03 AM on Thursday 23 Oct 2014 (Local Time) from KIWI Reporting Station
Light Rain Light Rain  
Wind Chill: 51°   Ceiling: 1200
Heat Index: 51°   Visibility: 5mi
Dew Point: 49°   Wind: 7mph
Humidity: 92%   Direction: NA
Pressure: 29.79"   Gusts: 18mph
Location:  43.8074°N, 69.7472°W
Report Text: KIWI 231503Z AUTO VRB06G16KT 5SM -RA BR SCT009 OVC012 11/09 A2979 RMK AO2 P0001 T01060094
Loading
Personal Weather Stations






























Interactive Weather Map
Tropical Storm Tracking
New forecast layout! Learn more

10-Day Weather Forecast

Advertisements
Track Severe Weather on mobile